createdAt,value
2022-08-17T00:00:42.878Z,78.65
2022-08-17T00:03:23.983Z,78.70
2022-08-17T00:05:57.767Z,78.82
2022-08-17T00:08:31.303Z,78.61
2022-08-17T00:10:59.825Z,78.76
2022-08-17T00:13:34.389Z,78.95
2022-08-17T00:16:09.147Z,78.77
2022-08-17T00:19:06.625Z,78.77
2022-08-17T00:21:26.300Z,78.89
2022-08-17T00:24:15.794Z,79.09
2022-08-17T00:26:44.982Z,79.12
2022-08-17T00:29:17.901Z,79.13
2022-08-17T00:31:49.599Z,79.25
2022-08-17T00:34:18.138Z,79.22
2022-08-17T00:36:46.090Z,79.40
2022-08-17T00:39:13.950Z,79.34
2022-08-17T00:41:42.752Z,79.80
2022-08-17T00:44:12.625Z,79.76
2022-08-17T00:46:43.272Z,79.82
2022-08-17T00:49:13.580Z,80.00
2022-08-17T00:51:51.353Z,80.23
2022-08-17T00:54:25.381Z,80.35
2022-08-17T00:57:17.623Z,80.36
2022-08-17T01:00:02.368Z,80.42
2022-08-17T01:02:42.605Z,80.21
2022-08-17T01:05:25.564Z,80.31
2022-08-17T01:07:54.360Z,80.31
2022-08-17T01:10:58.798Z,80.34
2022-08-17T01:13:21.224Z,80.11
2022-08-17T01:15:59.303Z,80.07
2022-08-17T01:18:28.591Z,79.99
2022-08-17T01:20:58.775Z,80.11
2022-08-17T01:23:28.947Z,79.89
2022-08-17T01:26:02.066Z,79.91
2022-08-17T01:28:40.701Z,79.86
2022-08-17T01:31:24.952Z,79.97
2022-08-17T01:33:53.589Z,80.09
2022-08-17T01:36:21.963Z,79.96
2022-08-17T01:38:50.121Z,79.99
2022-08-17T01:41:21.564Z,79.97
2022-08-17T01:43:55.244Z,79.83
2022-08-17T01:46:29.184Z,79.93
2022-08-17T01:48:58.153Z,80.00
2022-08-17T01:51:32.863Z,79.98
2022-08-17T01:54:05.872Z,80.03
2022-08-17T01:56:36.937Z,80.10
2022-08-17T01:59:05.312Z,80.25
2022-08-17T02:01:34.713Z,80.26
2022-08-17T02:04:04.947Z,80.10
2022-08-17T02:06:52.632Z,80.12
2022-08-17T02:09:25.956Z,80.36
2022-08-17T02:11:56.433Z,80.27
2022-08-17T02:14:25.154Z,80.28
2022-08-17T02:16:53.898Z,80.44
2022-08-17T02:19:22.868Z,80.27
2022-08-17T02:21:53.526Z,80.21
2022-08-17T02:24:58.685Z,80.53
2022-08-17T02:27:13.922Z,80.55
2022-08-17T02:29:41.848Z,80.40
2022-08-17T02:32:27.333Z,80.52
2022-08-17T02:34:57.593Z,80.42
2022-08-17T02:37:27.092Z,80.53
2022-08-17T02:39:57.384Z,80.52
2022-08-17T02:42:34.112Z,80.43
2022-08-17T02:45:04.522Z,80.52
2022-08-17T02:47:32.999Z,80.64
2022-08-17T02:50:00.895Z,80.58
2022-08-17T02:52:43.714Z,80.78
2022-08-17T02:55:19.125Z,80.62
2022-08-17T02:57:47.196Z,80.69
2022-08-17T03:00:29.007Z,80.56
2022-08-17T03:02:57.970Z,80.63
2022-08-17T03:05:28.308Z,80.56
2022-08-17T03:07:56.399Z,80.57
2022-08-17T03:10:25.670Z,80.70
2022-08-17T03:12:54.417Z,80.90
2022-08-17T03:15:28.401Z,81.02
2022-08-17T03:17:57.131Z,80.97
2022-08-17T03:20:28.759Z,81.01
2022-08-17T03:23:01.991Z,80.95
2022-08-17T03:25:34.534Z,80.96
2022-08-17T03:28:04.111Z,81.00
2022-08-17T03:30:32.858Z,81.03
2022-08-17T03:33:03.333Z,80.71
2022-08-17T03:35:33.582Z,80.94
2022-08-17T03:38:01.563Z,80.83
2022-08-17T03:40:55.516Z,80.76
2022-08-17T03:43:20.841Z,80.92
2022-08-17T03:46:10.083Z,80.92
2022-08-17T03:49:13.998Z,80.92
2022-08-17T03:52:01.141Z,81.05
2022-08-17T03:54:47.905Z,81.25
2022-08-17T03:57:16.718Z,81.32
2022-08-17T03:59:45.358Z,81.42
2022-08-17T04:02:18.760Z,81.57
2022-08-17T04:04:50.974Z,81.60
2022-08-17T04:07:21.698Z,81.73
2022-08-17T04:09:49.806Z,81.76
2022-08-17T04:12:23.664Z,81.78
2022-08-17T04:14:54.695Z,81.87
2022-08-17T04:17:30.924Z,81.95
2022-08-17T04:19:58.838Z,81.92
2022-08-17T04:22:31.906Z,81.87
2022-08-17T04:25:16.825Z,82.13
2022-08-17T04:27:44.649Z,82.07
2022-08-17T04:30:13.490Z,82.04
2022-08-17T04:33:05.527Z,82.15
2022-08-17T04:35:38.780Z,82.19
2022-08-17T04:38:12.306Z,82.39
2022-08-17T04:41:13.311Z,82.60
2022-08-17T04:43:42.998Z,82.60
2022-08-17T04:46:14.693Z,82.69
2022-08-17T04:48:46.198Z,82.60
2022-08-17T04:51:20.862Z,82.69
2022-08-17T04:53:54.097Z,82.97
2022-08-17T04:56:26.049Z,83.03
2022-08-17T04:59:00.265Z,83.15
2022-08-17T05:01:31.553Z,83.32
2022-08-17T05:04:32.196Z,83.54
2022-08-17T05:06:52.482Z,83.88
2022-08-17T05:09:23.557Z,83.98
2022-08-17T05:11:56.157Z,84.14
2022-08-17T05:14:33.534Z,84.37
2022-08-17T05:17:07.140Z,84.43
2022-08-17T05:19:39.578Z,84.58
2022-08-17T05:22:08.051Z,84.74
2022-08-17T05:24:40.795Z,84.71
2022-08-17T05:27:17.829Z,84.64
2022-08-17T05:29:46.841Z,84.61
2022-08-17T05:32:37.920Z,84.56
2022-08-17T05:35:05.354Z,84.91
2022-08-17T05:37:33.579Z,84.22
2022-08-17T05:40:01.581Z,84.35
2022-08-17T05:42:29.411Z,84.10
2022-08-17T05:44:58.862Z,84.22
2022-08-17T05:47:27.388Z,83.94
2022-08-17T05:49:55.725Z,83.94
2022-08-17T05:52:42.214Z,83.52
2022-08-17T05:55:28.642Z,83.40
2022-08-17T05:58:19.831Z,83.09
2022-08-17T06:01:00.988Z,82.61
2022-08-17T06:03:35.096Z,82.47
2022-08-17T06:06:14.514Z,82.03
2022-08-17T06:08:56.732Z,82.11
2022-08-17T06:11:31.532Z,81.65
2022-08-17T06:14:20.160Z,81.55
2022-08-17T06:16:54.553Z,81.20
2022-08-17T06:19:37.663Z,81.06
2022-08-17T06:22:07.624Z,81.22
2022-08-17T06:24:38.659Z,81.02
2022-08-17T06:27:13.645Z,80.47
2022-08-17T06:29:45.910Z,80.52
2022-08-17T06:32:14.620Z,80.62
2022-08-17T06:34:44.475Z,80.68
2022-08-17T06:37:42.293Z,80.18
2022-08-17T06:40:29.047Z,79.90
2022-08-17T06:43:23.524Z,79.59
2022-08-17T06:45:59.260Z,79.31
2022-08-17T06:48:52.556Z,78.91
2022-08-17T06:51:33.471Z,78.60
2022-08-17T06:54:25.592Z,78.27
2022-08-17T06:57:15.114Z,77.59
2022-08-17T06:59:56.291Z,77.12
2022-08-17T07:02:52.275Z,76.92
2022-08-17T07:05:39.784Z,76.42
2022-08-17T07:08:11.866Z,76.08
2022-08-17T07:10:47.312Z,76.29
2022-08-17T07:13:25.669Z,76.26
2022-08-17T07:16:01.104Z,75.70
2022-08-17T07:18:33.248Z,75.23
2022-08-17T07:21:26.728Z,75.12
2022-08-17T07:24:26.365Z,75.20
2022-08-17T07:27:21.458Z,75.72
2022-08-17T07:29:57.153Z,74.77
2022-08-17T07:32:46.190Z,74.76
2022-08-17T07:35:22.180Z,74.58
2022-08-17T07:38:24.941Z,73.88
2022-08-17T07:40:58.232Z,73.59
2022-08-17T07:43:39.384Z,73.56
2022-08-17T07:46:44.100Z,73.06
2022-08-17T07:49:32.863Z,72.64
2022-08-17T07:52:23.912Z,72.10
2022-08-17T07:54:58.120Z,71.87
2022-08-17T07:57:33.939Z,71.95
2022-08-17T08:00:02.015Z,71.22
2022-08-17T08:02:44.039Z,70.84
2022-08-17T08:05:49.178Z,70.07
2022-08-17T08:08:26.855Z,68.47
2022-08-17T08:11:34.912Z,68.27
2022-08-17T08:14:28.712Z,67.79
2022-08-17T08:17:09.227Z,68.15
2022-08-17T08:19:37.411Z,68.39
2022-08-17T08:22:11.710Z,68.10
2022-08-17T08:24:45.500Z,67.91
2022-08-17T08:27:50.273Z,67.93
2022-08-17T08:30:21.534Z,67.14
2022-08-17T08:32:57.237Z,66.81
2022-08-17T08:35:44.565Z,66.72
2022-08-17T08:38:37.146Z,66.98
2022-08-17T08:41:46.130Z,66.30
2022-08-17T08:45:00.232Z,65.86
2022-08-17T08:47:36.820Z,66.29
2022-08-17T08:50:37.554Z,65.59
2022-08-17T08:53:16.517Z,65.17
2022-08-17T08:56:03.417Z,64.26
2022-08-17T08:59:04.315Z,63.68
2022-08-17T09:01:56.460Z,64.36
2022-08-17T09:05:12.493Z,64.46
2022-08-17T09:07:51.441Z,64.00
2022-08-17T09:10:30.860Z,63.89
2022-08-17T09:13:14.159Z,63.92
2022-08-17T09:15:57.392Z,63.71
2022-08-17T09:19:00.285Z,63.69
2022-08-17T09:21:33.955Z,64.17
2022-08-17T09:24:13.032Z,64.06
2022-08-17T09:27:02.479Z,63.90
2022-08-17T09:29:37.604Z,63.67
2022-08-17T09:32:32.752Z,63.43
2022-08-17T09:35:06.323Z,63.27
2022-08-17T09:37:50.765Z,63.40
2022-08-17T09:40:38.396Z,63.43
2022-08-17T09:43:27.985Z,63.35
2022-08-17T09:46:02.519Z,63.29
2022-08-17T09:48:47.186Z,63.07
2022-08-17T09:51:40.302Z,62.26
2022-08-17T09:54:44.845Z,61.91
2022-08-17T09:57:31.729Z,60.94
2022-08-17T10:00:18.967Z,61.23
2022-08-17T10:03:09.786Z,61.28
2022-08-17T10:06:00.896Z,61.07
2022-08-17T10:08:32.311Z,61.05
2022-08-17T10:11:20.257Z,60.95
2022-08-17T10:14:02.816Z,60.44
2022-08-17T10:17:01.598Z,60.76
2022-08-17T10:19:38.434Z,59.70
2022-08-17T10:22:53.048Z,59.12
2022-08-17T10:25:54.567Z,58.21
2022-08-17T10:28:29.807Z,58.37
2022-08-17T10:31:33.266Z,57.83
2022-08-17T10:34:12.641Z,56.82
2022-08-17T10:36:47.589Z,56.94
2022-08-17T10:39:20.829Z,56.77
2022-08-17T10:41:53.725Z,56.39
2022-08-17T10:45:06.990Z,56.59
2022-08-17T10:48:05.156Z,56.58
2022-08-17T10:50:58.273Z,55.26
2022-08-17T10:53:32.221Z,55.63
2022-08-17T10:56:12.270Z,55.28
2022-08-17T10:58:49.635Z,55.64
2022-08-17T11:01:18.444Z,54.82
2022-08-17T11:03:58.142Z,55.50
2022-08-17T11:06:51.240Z,55.66
2022-08-17T11:09:42.328Z,54.97
2022-08-17T11:12:37.790Z,54.48
2022-08-17T11:15:11.617Z,54.44
2022-08-17T11:18:05.278Z,54.45
2022-08-17T11:21:08.785Z,53.86
2022-08-17T11:23:51.658Z,54.65
2022-08-17T11:26:27.832Z,55.03
2022-08-17T11:29:03.848Z,54.90
2022-08-17T11:31:44.526Z,54.77
2022-08-17T11:34:21.776Z,54.85
2022-08-17T11:37:42.399Z,54.86
2022-08-17T11:40:38.660Z,54.72
2022-08-17T11:43:32.914Z,53.90
2022-08-17T11:46:17.031Z,53.96
2022-08-17T11:49:25.409Z,54.21
2022-08-17T11:51:53.343Z,54.09
2022-08-17T11:54:33.249Z,54.17
2022-08-17T11:57:27.231Z,53.53
2022-08-17T12:00:06.874Z,53.12
2022-08-17T12:02:48.465Z,52.63
2022-08-17T12:05:25.894Z,51.82
2022-08-17T12:08:11.808Z,51.95
2022-08-17T12:10:54.671Z,51.63
2022-08-17T12:13:44.947Z,52.62
2022-08-17T12:16:18.220Z,53.01
2022-08-17T12:18:58.700Z,52.76
2022-08-17T12:21:40.868Z,52.77
2022-08-17T12:24:31.465Z,52.91
2022-08-17T12:27:01.984Z,52.74
2022-08-17T12:29:35.483Z,52.89
2022-08-17T12:32:17.603Z,52.41
2022-08-17T12:34:47.650Z,52.17
2022-08-17T12:37:31.640Z,51.77
2022-08-17T12:40:04.916Z,50.93
2022-08-17T12:42:37.569Z,50.58
2022-08-17T12:45:24.345Z,50.53
2022-08-17T12:48:09.282Z,50.29
2022-08-17T12:50:46.689Z,50.96
2022-08-17T12:53:17.549Z,50.16
2022-08-17T12:55:46.409Z,50.09
2022-08-17T12:58:21.716Z,50.48
2022-08-17T13:01:00.255Z,51.20
2022-08-17T13:03:38.837Z,50.71
2022-08-17T13:06:09.665Z,50.38
2022-08-17T13:08:47.819Z,50.58
2022-08-17T13:11:16.835Z,50.37
2022-08-17T13:14:07.656Z,50.91
2022-08-17T13:16:36.459Z,51.26
2022-08-17T13:19:13.048Z,51.00
2022-08-17T13:21:50.280Z,51.02
2022-08-17T13:24:25.921Z,50.27
2022-08-17T13:27:08.272Z,49.96
2022-08-17T13:29:45.812Z,50.54
2022-08-17T13:32:31.219Z,50.12
2022-08-17T13:35:29.638Z,49.45
2022-08-17T13:38:39.566Z,50.11
2022-08-17T13:41:08.040Z,50.76
2022-08-17T13:43:45.863Z,51.12
2022-08-17T13:46:28.651Z,50.06
2022-08-17T13:49:07.184Z,49.75
2022-08-17T13:51:46.954Z,50.25
2022-08-17T13:54:30.422Z,49.87
2022-08-17T13:57:00.668Z,50.01
2022-08-17T13:59:55.011Z,49.80
2022-08-17T14:02:25.838Z,49.30
2022-08-17T14:04:58.444Z,49.88
2022-08-17T14:07:31.429Z,49.93
2022-08-17T14:10:05.450Z,49.99
2022-08-17T14:12:36.279Z,50.39
2022-08-17T14:15:05.061Z,49.86
2022-08-17T14:17:38.064Z,50.27
2022-08-17T14:20:12.355Z,50.79
2022-08-17T14:22:45.055Z,50.33
2022-08-17T14:25:15.815Z,49.60
2022-08-17T14:27:52.996Z,49.49
2022-08-17T14:30:25.361Z,48.79
2022-08-17T14:32:54.561Z,48.36
2022-08-17T14:35:24.053Z,49.04
2022-08-17T14:37:52.801Z,49.25
2022-08-17T14:40:24.635Z,50.21
2022-08-17T14:42:55.390Z,50.87
2022-08-17T14:45:29.881Z,50.83
2022-08-17T14:48:04.436Z,50.63
2022-08-17T14:50:35.462Z,50.88
2022-08-17T14:53:06.065Z,51.29
2022-08-17T14:55:34.812Z,51.45
2022-08-17T14:58:04.289Z,51.57
2022-08-17T15:00:33.032Z,51.24
2022-08-17T15:03:02.287Z,51.59
2022-08-17T15:05:34.350Z,51.59
2022-08-17T15:08:03.868Z,52.06
2022-08-17T15:10:33.079Z,52.35
2022-08-17T15:13:01.259Z,52.82
2022-08-17T15:15:29.836Z,52.61
2022-08-17T15:17:58.889Z,52.64
2022-08-17T15:20:29.978Z,52.90
2022-08-17T15:22:59.646Z,53.24
2022-08-17T15:25:30.392Z,53.80
2022-08-17T15:27:59.560Z,53.92
2022-08-17T15:30:28.680Z,54.21
2022-08-17T15:32:58.940Z,54.20
2022-08-17T15:35:32.113Z,54.40
2022-08-17T15:38:11.779Z,54.81
2022-08-17T15:40:46.627Z,55.24
2022-08-17T15:43:27.090Z,55.57
2022-08-17T15:45:59.866Z,55.52
2022-08-17T15:48:41.690Z,55.89
2022-08-17T15:51:28.697Z,56.23
2022-08-17T15:54:04.598Z,56.64
2022-08-17T15:56:46.613Z,56.88
2022-08-17T15:59:14.572Z,57.37
2022-08-17T16:03:13.528Z,57.68
2022-08-17T16:04:31.918Z,58.33
2022-08-17T16:07:00.434Z,58.48
2022-08-17T16:09:28.703Z,59.09
2022-08-17T16:11:56.897Z,59.70
2022-08-17T16:14:33.567Z,60.07
2022-08-17T16:17:04.994Z,60.30
2022-08-17T16:19:52.908Z,60.79
2022-08-17T16:22:37.712Z,60.70
2022-08-17T16:25:12.576Z,60.86
2022-08-17T16:27:41.580Z,60.95
2022-08-17T16:30:15.048Z,60.80
2022-08-17T16:32:45.455Z,60.86
2022-08-17T16:35:17.507Z,60.57
2022-08-17T16:37:45.829Z,60.58
2022-08-17T16:40:16.150Z,60.66
2022-08-17T16:42:48.469Z,60.11
2022-08-17T16:45:19.209Z,60.24
2022-08-17T16:47:49.160Z,60.18
2022-08-17T16:50:20.646Z,60.14
2022-08-17T16:52:50.062Z,60.25
2022-08-17T16:55:21.160Z,60.37
2022-08-17T16:57:50.310Z,60.60
2022-08-17T17:00:21.142Z,60.86
2022-08-17T17:02:49.782Z,60.75
2022-08-17T17:05:40.460Z,61.05
2022-08-17T17:08:31.477Z,61.46
2022-08-17T17:11:09.753Z,61.49
2022-08-17T17:13:47.390Z,61.94
2022-08-17T17:16:31.121Z,62.00
2022-08-17T17:19:07.873Z,62.53
2022-08-17T17:22:11.270Z,62.78
2022-08-17T17:24:51.639Z,62.90
2022-08-17T17:27:38.251Z,63.16
2022-08-17T17:30:06.637Z,63.46
2022-08-17T17:32:43.713Z,63.72
2022-08-17T17:35:17.831Z,64.08
2022-08-17T17:37:47.194Z,64.44
2022-08-17T17:40:40.306Z,64.65
2022-08-17T17:43:37.261Z,65.03
2022-08-17T17:46:27.115Z,64.96
2022-08-17T17:49:00.660Z,64.82
2022-08-17T17:52:08.765Z,64.51
2022-08-17T17:54:53.003Z,63.77
2022-08-17T17:57:44.303Z,63.70
2022-08-17T18:00:38.925Z,63.56
2022-08-17T18:03:27.358Z,63.52
2022-08-17T18:06:00.590Z,63.67
2022-08-17T18:08:36.680Z,64.01
2022-08-17T18:11:25.376Z,64.19
2022-08-17T18:13:59.394Z,64.23
2022-08-17T18:16:32.975Z,64.57
2022-08-17T18:19:01.342Z,64.71
2022-08-17T18:21:38.098Z,64.79
2022-08-17T18:24:10.894Z,65.11
2022-08-17T18:26:44.708Z,65.28
2022-08-17T18:29:31.897Z,65.46
2022-08-17T18:32:18.923Z,65.66
2022-08-17T18:34:49.859Z,65.72
2022-08-17T18:37:33.118Z,65.99
2022-08-17T18:40:27.255Z,66.04
2022-08-17T18:43:03.360Z,66.27
2022-08-17T18:45:51.278Z,66.49
2022-08-17T18:48:29.960Z,66.69
2022-08-17T18:51:40.511Z,66.92
2022-08-17T18:54:14.465Z,67.26
2022-08-17T18:56:52.755Z,67.14
2022-08-17T18:59:33.860Z,67.34
2022-08-17T19:02:22.050Z,67.35
2022-08-17T19:05:29.452Z,67.48
2022-08-17T19:08:15.381Z,67.60
2022-08-17T19:10:47.262Z,67.91
2022-08-17T19:13:24.457Z,67.83
2022-08-17T19:16:12.010Z,67.98
2022-08-17T19:18:49.910Z,68.44
2022-08-17T19:21:33.867Z,68.76
2022-08-17T19:24:28.376Z,69.01
2022-08-17T19:27:14.641Z,68.87
2022-08-17T19:29:51.731Z,69.04
2022-08-17T19:32:31.724Z,69.01
2022-08-17T19:35:01.436Z,69.25
2022-08-17T19:38:01.016Z,69.50
2022-08-17T19:40:52.200Z,69.61
2022-08-17T19:43:21.095Z,70.03
2022-08-17T19:46:06.151Z,69.79
2022-08-17T19:48:53.769Z,69.92
2022-08-17T19:51:36.287Z,70.51
2022-08-17T19:54:16.191Z,70.31
2022-08-17T19:57:13.231Z,70.48
2022-08-17T19:59:50.900Z,70.54
2022-08-17T20:02:37.682Z,70.58
2022-08-17T20:05:21.467Z,70.94
2022-08-17T20:07:58.162Z,70.97
2022-08-17T20:10:32.455Z,71.37
2022-08-17T20:13:11.457Z,71.54
2022-08-17T20:15:43.248Z,72.01
2022-08-17T20:18:20.067Z,71.71
2022-08-17T20:21:19.900Z,71.74
2022-08-17T20:24:17.837Z,71.99
2022-08-17T20:26:58.183Z,72.09
2022-08-17T20:29:37.423Z,72.21
2022-08-17T20:32:18.292Z,72.62
2022-08-17T20:34:47.773Z,72.65
2022-08-17T20:37:15.675Z,72.92
2022-08-17T20:39:43.561Z,73.17
2022-08-17T20:42:20.765Z,73.29
2022-08-17T20:44:52.438Z,73.55
2022-08-17T20:47:26.979Z,73.42
2022-08-17T20:50:08.791Z,73.15
2022-08-17T20:52:56.145Z,73.33
2022-08-17T20:55:52.045Z,73.45
2022-08-17T20:58:30.049Z,73.40
2022-08-17T21:01:00.533Z,73.83
2022-08-17T21:03:40.031Z,73.81
2022-08-17T21:06:21.463Z,74.09
2022-08-17T21:09:29.734Z,73.92
2022-08-17T21:12:05.485Z,74.19
2022-08-17T21:15:00.264Z,74.39
2022-08-17T21:17:32.378Z,74.43
2022-08-17T21:20:11.550Z,74.51
2022-08-17T21:22:49.096Z,74.56
2022-08-17T21:25:46.531Z,74.86
2022-08-17T21:28:36.403Z,75.14
2022-08-17T21:31:50.847Z,75.32
2022-08-17T21:34:27.632Z,75.52
2022-08-17T21:37:16.477Z,75.71
2022-08-17T21:39:50.711Z,76.15
2022-08-17T21:42:25.243Z,76.13
2022-08-17T21:44:58.326Z,76.59
2022-08-17T21:47:29.531Z,76.72
2022-08-17T21:50:24.031Z,76.95
2022-08-17T21:52:54.296Z,76.72
2022-08-17T21:55:29.653Z,76.62
2022-08-17T21:58:13.727Z,76.67
2022-08-17T22:00:45.718Z,76.64
2022-08-17T22:03:26.235Z,76.66
2022-08-17T22:05:54.264Z,76.76
2022-08-17T22:08:26.063Z,77.12
2022-08-17T22:11:02.059Z,76.99
2022-08-17T22:13:30.235Z,77.38
2022-08-17T22:16:15.410Z,77.47
2022-08-17T22:18:58.219Z,77.41
2022-08-17T22:21:27.036Z,77.47
2022-08-17T22:24:05.478Z,77.34
2022-08-17T22:27:11.385Z,76.96
2022-08-17T22:29:53.251Z,76.83
2022-08-17T22:32:42.400Z,77.13
2022-08-17T22:35:28.947Z,77.05
2022-08-17T22:37:57.736Z,77.02
2022-08-17T22:40:34.592Z,77.18
2022-08-17T22:43:03.857Z,77.52
2022-08-17T22:45:35.298Z,77.40
2022-08-17T22:48:03.595Z,77.49
2022-08-17T22:50:35.747Z,77.50
2022-08-17T22:53:33.573Z,77.68
2022-08-17T22:56:20.649Z,77.57
2022-08-17T22:59:15.107Z,77.44
2022-08-17T23:01:45.679Z,77.38
2022-08-17T23:04:32.258Z,77.69
2022-08-17T23:07:00.871Z,77.52
2022-08-17T23:09:29.613Z,77.60
2022-08-17T23:11:58.965Z,77.47
2022-08-17T23:14:31.842Z,77.47
2022-08-17T23:17:00.870Z,77.51
2022-08-17T23:19:31.986Z,77.56
2022-08-17T23:22:02.891Z,77.58
2022-08-17T23:24:35.801Z,77.79
2022-08-17T23:27:07.703Z,77.77
2022-08-17T23:29:39.581Z,77.95
2022-08-17T23:32:10.210Z,77.88
2022-08-17T23:34:40.070Z,78.16
2022-08-17T23:37:10.457Z,78.15
2022-08-17T23:39:39.737Z,78.33
2022-08-17T23:42:11.198Z,78.20
2022-08-17T23:44:42.165Z,78.34
2022-08-17T23:47:11.317Z,78.37
2022-08-17T23:49:41.501Z,78.64
2022-08-17T23:52:15.004Z,78.70
2022-08-17T23:54:47.823Z,78.68
2022-08-17T23:57:19.400Z,78.69
2022-08-17T23:59:47.394Z,78.72
